Airfield :







YOU CAN JOIN US ON...

 
LOGIN :

Register | Disclaimer

   EN    FR    IT 

 









Legend :    VFR   Marginal VFR   IFR   Intensive IFR   Very Intensive IFR
Visi :
Ceiling :
>= 8 km
>= 3000ft
5 to 8 km
1000 to 3000 ft
1500m to 5 km
500 to 1000 ft
800 to 1500m
200 to 500 ft
< 800m
< 200 ft
Symbols :   Thunderstorms  Fog  Heavy snow  Heavy precipitations  Wind > 20 kt






- Airport Elevation : 26 ft
- IATA code : CAY


SOCA - Rochambeau

CURRENT METAR :
  • 041730Z AUTO 07012KT 9999 FEW023 SCT056 31/24 Q1009 TEMPO 2000 SHRA SCT008 BKN012TCU

EXPIRED METARs :
  • 041700Z AUTO 07013KT 9999 FEW026 SCT048 BKN062 31/24 Q1010 TEMPO 2000 SHRA SCT008 BKN012TCU
  • 041630Z AUTO 06014KT 030V090 9999 FEW024 SCT038 31/24 Q1010 TEMPO 2000 SHRA SCT008 BKN012TCU
  • 041600Z AUTO 06016KT 9999 FEW023 SCT028 BKN039 31/24 Q1011 TEMPO 2000 SHRA SCT008 BKN012TCU
  • 041530Z AUTO 06017KT 9999 BKN027 BKN035 BKN044 31/24 Q1011 TEMPO 2000 SHRA SCT008 BKN012TCU
  • 041500Z AUTO 06014KT 9999 FEW020 BKN029 BKN046 30/25 Q1012 TEMPO 2000 SHRA SCT008 BKN012TCU

TAF TAF SOCA
Valid from the 04 at 12:00 until the 05 at 12:00 UTC


041000Z 0412/0512 07012KT 9999 SCT025 SCT045
PROB40
TEMPO 0412/0512 SHRA FEW012TCU
PROB30
TEMPO 0412/0512 2000 SHRA SCT008 BKN012TCU



MET'MAP, your aeronautical weather chart ! - Copyright ORBIFLY December 2007 - Disclaimer

ORBIFLY MET'MAP TEAM :

Programming & Development : Alexandra Zaïnal
Concept & original design : Baudouin d'Aumeries
Assistance for programming : Marc-Olivier Méhu
Technical & hardware support : Manuel Goepfert

Contact : metmap@orbifly.com




SOURCES & CREDITS :

   NOAA